createdAt,value
2023-05-17T00:00:57.459Z,0.43
2023-05-17T00:03:24.272Z,0.20
2023-05-17T00:05:51.072Z,0.03
2023-05-17T00:08:17.885Z,0.00
2023-05-17T00:10:44.661Z,0.10
2023-05-17T00:13:11.571Z,0.10
2023-05-17T00:15:38.335Z,0.10
2023-05-17T00:18:05.221Z,0.10
2023-05-17T00:20:32.158Z,0.10
2023-05-17T00:22:58.917Z,0.10
2023-05-17T00:25:25.740Z,0.20
2023-05-17T00:27:52.698Z,0.20
2023-05-17T00:30:19.480Z,0.10
2023-05-17T00:32:47.168Z,0.10
2023-05-17T00:35:14.701Z,0.00
2023-05-17T00:37:43.467Z,0.10
2023-05-17T00:40:11.110Z,0.10
2023-05-17T00:42:37.837Z,0.10
2023-05-17T00:45:05.112Z,0.20
2023-05-17T00:47:31.904Z,0.10
2023-05-17T00:49:58.963Z,0.20
2023-05-17T00:52:26.179Z,0.20
2023-05-17T00:54:53.144Z,0.10
2023-05-17T00:57:20.180Z,0.10
2023-05-17T00:59:47.929Z,0.10
2023-05-17T01:02:14.727Z,0.30
2023-05-17T01:04:41.938Z,0.10
2023-05-17T01:07:09.960Z,0.10
2023-05-17T01:09:37.850Z,0.20
2023-05-17T01:12:15.997Z,0.20
2023-05-17T01:14:52.256Z,0.13
2023-05-17T01:17:54.901Z,0.15
2023-05-17T01:20:29.077Z,0.10
2023-05-17T01:22:58.972Z,0.17
2023-05-17T01:25:45.487Z,0.10
2023-05-17T01:28:14.137Z,0.20
2023-05-17T01:30:42.423Z,0.10
2023-05-17T01:33:09.408Z,0.13
2023-05-17T01:35:36.216Z,0.20
2023-05-17T01:38:03.053Z,0.20
2023-05-17T01:40:34.039Z,0.10
2023-05-17T01:46:58.000Z,0.10
2023-05-17T01:49:38.558Z,0.20
2023-05-17T01:52:21.529Z,0.30
2023-05-17T01:55:18.489Z,0.30
2023-05-17T01:57:48.198Z,0.32
2023-05-17T02:00:15.579Z,0.10
2023-05-17T02:02:42.565Z,0.45
2023-05-17T02:05:09.580Z,0.45
2023-05-17T02:07:36.436Z,0.43
2023-05-17T02:10:03.941Z,1.27
2023-05-17T02:12:30.791Z,0.40
2023-05-17T02:14:57.553Z,0.20
2023-05-17T02:17:24.617Z,0.10
2023-05-17T02:19:51.431Z,0.32
2023-05-17T02:22:18.201Z,0.32
2023-05-17T02:24:44.977Z,0.40
2023-05-17T02:27:11.722Z,0.17
2023-05-17T02:29:38.493Z,0.20
2023-05-17T02:32:06.415Z,0.10
2023-05-17T02:34:33.600Z,0.10
2023-05-17T02:37:00.591Z,0.10
2023-05-17T02:39:27.380Z,0.08
2023-05-17T02:41:54.159Z,0.15
2023-05-17T02:44:20.960Z,0.10
2023-05-17T02:46:47.881Z,0.10
2023-05-17T02:49:14.720Z,0.10
2023-05-17T02:51:41.473Z,0.10
2023-05-17T02:54:08.255Z,0.28
2023-05-17T02:56:35.029Z,0.17
2023-05-17T02:59:01.748Z,0.40
2023-05-17T03:01:28.580Z,0.10
2023-05-17T03:03:55.709Z,0.22
2023-05-17T03:06:22.655Z,0.10
2023-05-17T03:08:49.501Z,0.32
2023-05-17T03:11:16.248Z,0.38
2023-05-17T03:13:43.109Z,0.05
2023-05-17T03:16:09.861Z,0.22
2023-05-17T03:18:36.783Z,0.15
2023-05-17T03:21:03.873Z,0.22
2023-05-17T03:23:30.911Z,0.20
2023-05-17T03:25:57.701Z,0.30
2023-05-17T03:28:24.546Z,0.20
2023-05-17T03:30:51.958Z,0.00
2023-05-17T03:33:19.650Z,0.00
2023-05-17T03:35:49.475Z,0.20
2023-05-17T03:38:16.260Z,0.30
2023-05-17T03:40:43.054Z,0.20
2023-05-17T03:43:09.849Z,0.65
2023-05-17T03:45:36.604Z,0.10
2023-05-17T03:48:03.491Z,0.20
2023-05-17T03:50:32.798Z,0.20
2023-05-17T03:52:59.568Z,0.52
2023-05-17T03:55:26.892Z,0.08
2023-05-17T03:57:53.844Z,0.20
2023-05-17T04:00:22.145Z,0.38
2023-05-17T04:02:49.330Z,0.10
2023-05-17T04:05:16.356Z,0.10
2023-05-17T04:07:43.879Z,0.10
2023-05-17T04:10:11.025Z,0.00
2023-05-17T04:12:38.143Z,0.17
2023-05-17T04:15:06.948Z,0.00
2023-05-17T04:17:33.934Z,0.10
2023-05-17T04:20:00.886Z,0.10
2023-05-17T04:22:27.769Z,0.20
2023-05-17T04:24:54.523Z,1.45
2023-05-17T04:27:22.110Z,0.10
2023-05-17T04:29:48.820Z,0.20
2023-05-17T04:32:15.575Z,0.10
2023-05-17T04:34:43.342Z,0.10
2023-05-17T04:37:10.191Z,0.10
2023-05-17T04:39:37.040Z,0.13
2023-05-17T04:42:04.491Z,0.40
2023-05-17T04:44:31.258Z,0.60
2023-05-17T04:46:58.017Z,0.00
2023-05-17T04:49:25.283Z,0.10
2023-05-17T04:51:52.949Z,0.13
2023-05-17T04:54:19.683Z,0.20
2023-05-17T04:56:46.441Z,0.30
2023-05-17T04:59:13.274Z,0.20
2023-05-17T05:01:40.025Z,0.20
2023-05-17T05:04:07.326Z,0.65
2023-05-17T05:06:34.885Z,0.20
2023-05-17T05:09:02.260Z,0.20
2023-05-17T05:11:29.067Z,0.20
2023-05-17T05:13:56.320Z,0.40
2023-05-17T05:16:24.400Z,0.20
2023-05-17T05:18:51.531Z,0.28
2023-05-17T05:21:18.542Z,0.20
2023-05-17T05:23:45.413Z,0.30
2023-05-17T05:26:12.118Z,0.17
2023-05-17T05:28:38.971Z,0.10
2023-05-17T05:31:05.785Z,0.20
2023-05-17T05:33:32.751Z,0.10
2023-05-17T05:35:59.685Z,0.20
2023-05-17T05:38:26.457Z,0.20
2023-05-17T05:40:53.283Z,0.57
2023-05-17T05:43:20.046Z,0.15
2023-05-17T05:45:47.474Z,0.10
2023-05-17T05:48:14.385Z,0.30
2023-05-17T05:50:45.072Z,0.10
2023-05-17T05:53:18.806Z,0.25
2023-05-17T05:55:46.474Z,0.20
2023-05-17T05:58:13.383Z,0.10
2023-05-17T06:00:40.113Z,0.28
2023-05-17T06:03:06.987Z,0.20
2023-05-17T06:05:34.056Z,0.20
2023-05-17T06:08:00.982Z,0.40
2023-05-17T06:10:28.194Z,0.20
2023-05-17T06:12:55.086Z,0.20
2023-05-17T06:15:21.828Z,0.20
2023-05-17T06:17:48.935Z,0.10
2023-05-17T06:20:16.612Z,0.20
2023-05-17T06:22:44.130Z,0.20
2023-05-17T06:25:11.563Z,0.17
2023-05-17T06:27:40.204Z,0.20
2023-05-17T06:30:07.692Z,0.20
2023-05-17T06:32:34.985Z,0.55
2023-05-17T06:35:02.063Z,0.20
2023-05-17T06:37:28.950Z,0.20
2023-05-17T06:42:36.382Z,0.10
2023-05-17T06:45:03.518Z,0.30
2023-05-17T06:47:30.443Z,0.20
2023-05-17T06:49:57.327Z,0.30
2023-05-17T06:52:24.192Z,0.25
2023-05-17T06:54:51.081Z,0.20
2023-05-17T06:57:17.853Z,0.30
2023-05-17T06:59:44.777Z,0.68
2023-05-17T07:02:11.580Z,2.10
2023-05-17T07:04:38.412Z,0.50
2023-05-17T07:07:05.580Z,0.52
2023-05-17T07:09:32.497Z,7.20
2023-05-17T07:11:59.384Z,4.03
2023-05-17T07:14:26.257Z,0.75
2023-05-17T07:16:53.138Z,0.50
2023-05-17T07:19:19.979Z,0.40
2023-05-17T07:21:47.334Z,0.88
2023-05-17T07:24:14.193Z,1.30
2023-05-17T07:26:41.079Z,1.45
2023-05-17T07:29:07.967Z,0.80
2023-05-17T07:31:34.892Z,0.90
2023-05-17T07:34:02.087Z,0.60
2023-05-17T07:36:30.872Z,0.20
2023-05-17T07:39:01.907Z,0.35
2023-05-17T07:41:28.822Z,0.28
2023-05-17T07:43:55.683Z,0.80
2023-05-17T07:46:22.578Z,0.90
2023-05-17T07:48:49.596Z,0.70
2023-05-17T07:51:16.521Z,1.02
2023-05-17T07:53:43.449Z,0.40
2023-05-17T07:56:10.261Z,0.43
2023-05-17T07:58:37.057Z,0.35
2023-05-17T08:01:04.311Z,0.60
2023-05-17T08:03:31.213Z,0.35
2023-05-17T08:05:58.111Z,0.50
2023-05-17T08:08:24.939Z,0.65
2023-05-17T08:10:51.834Z,0.50
2023-05-17T08:13:18.976Z,0.20
2023-05-17T08:15:45.856Z,0.20
2023-05-17T08:18:13.126Z,0.10
2023-05-17T08:20:40.024Z,0.17
2023-05-17T08:23:07.505Z,0.63
2023-05-17T08:25:34.435Z,0.38
2023-05-17T08:28:01.254Z,0.10
2023-05-17T08:30:29.245Z,0.20
2023-05-17T08:32:59.859Z,0.28
2023-05-17T08:35:28.777Z,0.20
2023-05-17T08:37:56.069Z,0.10
2023-05-17T08:40:23.256Z,0.10
2023-05-17T08:42:51.177Z,0.25
2023-05-17T08:45:19.068Z,0.30
2023-05-17T08:47:49.332Z,0.95
2023-05-17T08:50:17.642Z,0.30
2023-05-17T08:52:46.568Z,0.20
2023-05-17T08:55:16.747Z,0.10
2023-05-17T08:57:43.738Z,0.17
2023-05-17T09:00:15.210Z,0.20
2023-05-17T09:02:43.235Z,0.35
2023-05-17T09:05:11.168Z,0.20
2023-05-17T09:07:38.189Z,0.30
2023-05-17T09:10:06.107Z,0.25
2023-05-17T09:12:35.441Z,0.20
2023-05-17T09:15:16.858Z,0.30
2023-05-17T09:17:44.438Z,0.10
2023-05-17T09:20:11.763Z,0.40
2023-05-17T09:22:38.762Z,1.27
2023-05-17T09:25:06.071Z,0.20
2023-05-17T09:27:32.894Z,0.10
2023-05-17T09:29:59.850Z,0.15
2023-05-17T09:32:28.565Z,0.10
2023-05-17T09:34:58.205Z,0.15
2023-05-17T09:37:26.424Z,0.20
2023-05-17T09:39:55.398Z,0.20
2023-05-17T09:42:26.520Z,0.20
2023-05-17T09:45:00.231Z,0.10
2023-05-17T09:47:29.360Z,0.20
2023-05-17T09:49:58.419Z,0.20
2023-05-17T09:52:25.539Z,0.10
2023-05-17T09:54:56.501Z,0.20
2023-05-17T09:57:23.813Z,0.10
2023-05-17T09:59:51.768Z,0.10
2023-05-17T10:02:22.852Z,0.20
2023-05-17T10:04:51.416Z,0.10
2023-05-17T10:07:19.940Z,0.20
2023-05-17T10:09:49.473Z,0.10
2023-05-17T10:12:18.996Z,0.10
2023-05-17T10:14:46.143Z,0.20
2023-05-17T10:17:14.297Z,0.20
2023-05-17T10:19:42.499Z,0.10
2023-05-17T10:22:21.608Z,0.30
2023-05-17T10:24:51.543Z,0.20
2023-05-17T10:27:18.572Z,0.50
2023-05-17T10:29:47.759Z,0.10
2023-05-17T10:32:19.396Z,0.30
2023-05-17T10:34:54.472Z,0.20
2023-05-17T10:37:30.412Z,0.25
2023-05-17T10:39:57.696Z,0.20
2023-05-17T10:42:26.580Z,0.28
2023-05-17T10:44:54.797Z,0.10
2023-05-17T10:47:22.684Z,0.20
2023-05-17T10:49:51.716Z,0.20
2023-05-17T10:52:21.932Z,0.20
2023-05-17T10:54:50.555Z,0.28
2023-05-17T10:57:50.621Z,0.15
2023-05-17T11:00:26.403Z,0.10
2023-05-17T11:03:21.073Z,0.10
2023-05-17T11:06:12.899Z,0.10
2023-05-17T11:09:18.661Z,0.20
2023-05-17T11:12:12.799Z,0.10
2023-05-17T11:14:45.828Z,0.20
2023-05-17T11:17:18.092Z,0.45
2023-05-17T11:20:14.221Z,0.15
2023-05-17T11:22:55.521Z,0.20
2023-05-17T11:25:22.374Z,0.20
2023-05-17T11:27:51.997Z,0.10
2023-05-17T11:30:23.148Z,0.20
2023-05-17T11:32:51.661Z,0.10
2023-05-17T11:35:20.397Z,0.10
2023-05-17T11:37:47.449Z,0.20
2023-05-17T11:40:16.153Z,0.10
2023-05-17T11:42:43.172Z,0.10
2023-05-17T11:45:10.357Z,0.10
2023-05-17T11:47:40.309Z,0.10
2023-05-17T11:50:07.912Z,0.20
2023-05-17T11:52:34.998Z,0.40
2023-05-17T11:55:02.074Z,0.15
2023-05-17T11:57:32.814Z,0.20
2023-05-17T12:00:01.640Z,0.10
2023-05-17T12:02:33.870Z,0.10
2023-05-17T12:05:00.933Z,0.25
2023-05-17T12:07:28.104Z,0.10
2023-05-17T12:09:55.020Z,0.35
2023-05-17T12:12:22.733Z,0.10
2023-05-17T12:14:50.831Z,0.30
2023-05-17T12:17:29.039Z,0.10
2023-05-17T12:19:56.129Z,0.10
2023-05-17T12:22:23.002Z,0.20
2023-05-17T12:24:49.883Z,0.30
2023-05-17T12:27:26.200Z,0.20
2023-05-17T12:29:54.321Z,0.20
2023-05-17T12:32:21.547Z,0.25
2023-05-17T12:34:49.549Z,0.20
2023-05-17T12:37:16.950Z,0.13
2023-05-17T12:39:44.272Z,0.10
2023-05-17T12:42:11.360Z,0.15
2023-05-17T12:44:38.342Z,0.20
2023-05-17T12:47:05.340Z,0.20
2023-05-17T12:49:38.211Z,0.20
2023-05-17T12:52:05.759Z,0.20
2023-05-17T12:54:33.406Z,0.10
2023-05-17T12:57:12.309Z,0.10
2023-05-17T12:59:54.864Z,0.20
2023-05-17T13:02:22.569Z,0.47
2023-05-17T13:04:49.900Z,0.13
2023-05-17T13:07:24.512Z,0.20
2023-05-17T13:09:52.069Z,0.20
2023-05-17T13:12:22.314Z,0.20
2023-05-17T13:14:55.141Z,0.25
2023-05-17T13:17:27.284Z,0.20
2023-05-17T13:19:58.007Z,0.20
2023-05-17T13:22:25.483Z,0.30
2023-05-17T13:24:52.919Z,0.20
2023-05-17T13:27:20.240Z,0.30
2023-05-17T13:29:47.385Z,0.20
2023-05-17T13:32:14.479Z,0.20
2023-05-17T13:34:41.583Z,0.20
2023-05-17T13:37:11.674Z,0.22
2023-05-17T13:39:39.822Z,0.20
2023-05-17T13:42:07.056Z,0.28
2023-05-17T13:44:34.020Z,0.30
2023-05-17T13:47:01.128Z,0.50
2023-05-17T13:49:28.762Z,0.43
2023-05-17T13:51:56.946Z,0.50
2023-05-17T13:54:24.027Z,0.50
2023-05-17T13:56:50.997Z,0.60
2023-05-17T13:59:17.864Z,0.45
2023-05-17T14:01:45.281Z,0.47
2023-05-17T14:04:12.364Z,0.60
2023-05-17T14:06:39.410Z,0.60
2023-05-17T14:09:06.588Z,0.60
2023-05-17T14:11:34.345Z,0.80
2023-05-17T14:14:01.472Z,0.55
2023-05-17T14:16:28.457Z,0.70
2023-05-17T14:18:55.428Z,0.65
2023-05-17T14:21:22.393Z,0.80
2023-05-17T14:23:49.282Z,0.70
2023-05-17T14:26:16.468Z,0.93
2023-05-17T14:28:43.350Z,0.80
2023-05-17T14:31:10.840Z,0.70
2023-05-17T14:33:37.929Z,0.80
2023-05-17T14:36:05.192Z,0.85
2023-05-17T14:38:32.101Z,0.57
2023-05-17T14:41:00.884Z,0.50
2023-05-17T14:43:28.419Z,0.47
2023-05-17T14:45:55.250Z,0.82
2023-05-17T14:48:22.624Z,0.60
2023-05-17T14:50:49.815Z,0.60
2023-05-17T14:53:16.755Z,0.80
2023-05-17T14:55:43.601Z,0.47
2023-05-17T14:58:13.221Z,0.40
2023-05-17T15:00:42.003Z,0.57
2023-05-17T15:03:09.419Z,0.52
2023-05-17T15:05:37.169Z,0.50
2023-05-17T15:08:04.511Z,0.50
2023-05-17T15:10:31.903Z,0.35
2023-05-17T15:12:58.692Z,0.40
2023-05-17T15:15:25.553Z,0.30
2023-05-17T15:17:53.072Z,0.50
2023-05-17T15:20:20.509Z,0.38
2023-05-17T15:22:48.555Z,0.50
2023-05-17T15:25:16.194Z,0.30
2023-05-17T15:27:43.046Z,0.50
2023-05-17T15:30:12.609Z,0.43
2023-05-17T15:32:40.331Z,0.20
2023-05-17T15:35:07.866Z,0.30
2023-05-17T15:37:34.678Z,0.32
2023-05-17T15:40:09.674Z,0.38
2023-05-17T15:42:37.148Z,0.32
2023-05-17T15:45:04.276Z,0.30
2023-05-17T15:47:42.468Z,0.30
2023-05-17T15:50:11.116Z,0.30
2023-05-17T15:52:38.224Z,0.30
2023-05-17T15:55:05.598Z,0.30
2023-05-17T15:57:32.505Z,0.30
2023-05-17T15:59:59.461Z,0.32
2023-05-17T16:02:26.413Z,0.47
2023-05-17T16:04:53.273Z,0.20
2023-05-17T16:07:20.050Z,0.40
2023-05-17T16:09:46.894Z,0.30
2023-05-17T16:12:13.693Z,0.40
2023-05-17T16:14:41.111Z,0.30
2023-05-17T16:17:07.861Z,0.63
2023-05-17T16:19:34.995Z,0.38
2023-05-17T16:22:02.033Z,0.40
2023-05-17T16:24:29.020Z,0.30
2023-05-17T16:26:55.830Z,0.50
2023-05-17T16:29:22.608Z,0.40
2023-05-17T16:31:49.437Z,0.40
2023-05-17T16:34:16.407Z,0.32
2023-05-17T16:36:47.367Z,0.45
2023-05-17T16:39:14.113Z,0.22
2023-05-17T16:41:40.909Z,0.30
2023-05-17T16:44:07.695Z,0.30
2023-05-17T16:46:34.520Z,0.30
2023-05-17T16:49:01.482Z,0.30
2023-05-17T16:51:28.411Z,0.65
2023-05-17T16:53:55.149Z,0.20
2023-05-17T16:56:22.347Z,0.20
2023-05-17T16:58:49.112Z,0.40
2023-05-17T17:01:16.613Z,0.30
2023-05-17T17:03:43.621Z,0.30
2023-05-17T17:06:10.666Z,0.30
2023-05-17T17:08:38.284Z,0.30
2023-05-17T17:11:05.114Z,0.30
2023-05-17T17:13:32.128Z,0.30
2023-05-17T17:15:59.216Z,0.47
2023-05-17T17:18:26.279Z,0.40
2023-05-17T17:20:53.162Z,0.28
2023-05-17T17:23:20.103Z,0.40
2023-05-17T17:25:46.928Z,0.30
2023-05-17T17:28:13.965Z,0.45
2023-05-17T17:30:40.708Z,1.13
2023-05-17T17:33:07.555Z,0.40
2023-05-17T17:35:34.397Z,0.40
2023-05-17T17:38:03.179Z,0.30
2023-05-17T17:40:30.430Z,0.22
2023-05-17T17:42:57.419Z,0.20
2023-05-17T17:45:24.326Z,0.30
2023-05-17T17:47:51.200Z,0.30
2023-05-17T17:50:18.018Z,0.30
2023-05-17T17:52:44.826Z,0.35
2023-05-17T17:55:13.333Z,0.40
2023-05-17T17:57:40.106Z,0.60
2023-05-17T18:00:10.977Z,0.30
2023-05-17T18:02:38.485Z,0.50
2023-05-17T18:05:05.712Z,0.47
2023-05-17T18:07:32.523Z,4.07
2023-05-17T18:09:59.278Z,3.15
2023-05-17T18:12:27.746Z,3.05
2023-05-17T18:14:54.976Z,2.00
2023-05-17T18:17:21.927Z,3.05
2023-05-17T18:19:48.863Z,3.97
2023-05-17T18:22:17.082Z,3.92
2023-05-17T18:24:44.027Z,1.60
2023-05-17T18:27:14.392Z,1.95
2023-05-17T18:29:41.643Z,1.10
2023-05-17T18:32:10.048Z,0.70
2023-05-17T18:34:37.063Z,0.60
2023-05-17T18:37:04.414Z,0.50
2023-05-17T18:39:31.257Z,0.57
2023-05-17T18:41:57.976Z,0.40
2023-05-17T18:44:24.823Z,0.50
2023-05-17T18:46:52.164Z,0.32
2023-05-17T18:49:18.950Z,0.40
2023-05-17T18:51:45.848Z,0.40
2023-05-17T18:54:12.632Z,0.50
2023-05-17T18:56:39.640Z,0.90
2023-05-17T18:59:06.513Z,0.70
2023-05-17T19:01:33.457Z,0.73
2023-05-17T19:04:00.520Z,1.00
2023-05-17T19:06:31.899Z,0.70
2023-05-17T19:08:59.089Z,1.45
2023-05-17T19:11:28.683Z,1.17
2023-05-17T19:13:55.821Z,0.60
2023-05-17T19:16:22.686Z,0.55
2023-05-17T19:18:50.208Z,0.45
2023-05-17T19:21:17.135Z,0.80
2023-05-17T19:23:44.032Z,1.15
2023-05-17T19:26:10.923Z,0.77
2023-05-17T19:28:37.712Z,0.40
2023-05-17T19:31:04.811Z,0.35
2023-05-17T19:33:32.246Z,0.50
2023-05-17T19:35:59.022Z,0.50
2023-05-17T19:38:25.948Z,0.80
2023-05-17T19:40:52.747Z,0.50
2023-05-17T19:43:19.528Z,0.50
2023-05-17T19:45:46.569Z,0.40
2023-05-17T19:48:13.383Z,0.30
2023-05-17T19:50:40.187Z,0.90
2023-05-17T19:53:07.073Z,0.32
2023-05-17T19:55:34.444Z,0.50
2023-05-17T19:58:01.886Z,0.60
2023-05-17T20:00:30.237Z,0.50
2023-05-17T20:02:57.835Z,0.50
2023-05-17T20:05:25.597Z,0.40
2023-05-17T20:07:52.395Z,0.40
2023-05-17T20:10:19.188Z,0.63
2023-05-17T20:12:46.877Z,0.50
2023-05-17T20:15:13.691Z,0.30
2023-05-17T20:17:40.489Z,0.30
2023-05-17T20:20:07.885Z,0.40
2023-05-17T20:22:35.116Z,0.30
2023-05-17T20:25:02.004Z,0.47
2023-05-17T20:27:28.831Z,0.30
2023-05-17T20:29:55.567Z,0.50
2023-05-17T20:32:22.388Z,0.50
2023-05-17T20:34:49.217Z,1.65
2023-05-17T20:37:16.203Z,0.60
2023-05-17T20:39:42.956Z,0.60
2023-05-17T20:42:09.991Z,1.10
2023-05-17T20:44:36.768Z,0.80
2023-05-17T20:47:05.026Z,0.85
2023-05-17T20:49:32.091Z,0.50
2023-05-17T20:52:03.114Z,0.30
2023-05-17T20:54:30.864Z,0.30
2023-05-17T20:56:58.253Z,0.45
2023-05-17T20:59:26.014Z,0.40
2023-05-17T21:01:53.132Z,0.60
2023-05-17T21:04:20.039Z,1.13
2023-05-17T21:06:47.077Z,2.97
2023-05-17T21:09:14.032Z,3.10
2023-05-17T21:11:41.160Z,2.05
2023-05-17T21:14:08.241Z,0.60
2023-05-17T21:16:35.580Z,1.50
2023-05-17T21:19:02.649Z,1.55
2023-05-17T21:21:29.485Z,0.70
2023-05-17T21:23:56.279Z,0.75
2023-05-17T21:26:23.335Z,0.68
2023-05-17T21:28:50.190Z,0.65
2023-05-17T21:31:17.015Z,0.50
2023-05-17T21:33:44.054Z,0.60
2023-05-17T21:36:10.873Z,0.60
2023-05-17T21:38:37.603Z,0.55
2023-05-17T21:41:04.396Z,0.57
2023-05-17T21:43:31.142Z,0.50
2023-05-17T21:45:57.950Z,0.77
2023-05-17T21:48:24.790Z,0.65
2023-05-17T21:50:51.611Z,0.60
2023-05-17T21:53:18.434Z,0.60
2023-05-17T21:55:56.943Z,0.60
2023-05-17T21:58:28.857Z,0.52
2023-05-17T22:00:55.640Z,0.68
2023-05-17T22:03:22.631Z,1.00
2023-05-17T22:05:49.539Z,0.70
2023-05-17T22:08:16.320Z,0.55
2023-05-17T22:10:43.705Z,0.70
2023-05-17T22:13:12.625Z,0.80
2023-05-17T22:15:41.632Z,0.70
2023-05-17T22:18:09.100Z,0.80
2023-05-17T22:20:35.916Z,1.27
2023-05-17T22:23:03.245Z,0.90
2023-05-17T22:25:30.064Z,1.45
2023-05-17T22:27:56.843Z,0.88
2023-05-17T22:30:24.017Z,0.90
2023-05-17T22:32:54.671Z,0.80
2023-05-17T22:35:21.742Z,0.88
2023-05-17T22:37:50.132Z,0.90
2023-05-17T22:40:16.855Z,0.77
2023-05-17T22:42:44.918Z,0.90
2023-05-17T22:45:15.209Z,1.17
2023-05-17T22:47:42.993Z,0.80
2023-05-17T22:50:14.679Z,0.60
2023-05-17T22:52:42.856Z,0.60
2023-05-17T22:55:10.719Z,0.73
2023-05-17T22:57:37.560Z,0.77
2023-05-17T23:00:11.920Z,0.70
2023-05-17T23:02:38.884Z,0.80
2023-05-17T23:05:06.110Z,0.68
2023-05-17T23:07:37.241Z,0.70
2023-05-17T23:10:09.571Z,0.40
2023-05-17T23:12:37.485Z,0.60
2023-05-17T23:15:05.162Z,0.52
2023-05-17T23:17:34.145Z,0.45
2023-05-17T23:20:02.365Z,0.73
2023-05-17T23:22:31.668Z,0.47
2023-05-17T23:24:58.863Z,0.50
2023-05-17T23:27:25.843Z,0.70
2023-05-17T23:29:54.195Z,0.43
2023-05-17T23:32:21.881Z,0.50
2023-05-17T23:34:58.588Z,0.95
2023-05-17T23:37:25.442Z,0.40
2023-05-17T23:39:52.413Z,0.40
2023-05-17T23:42:20.462Z,0.63
2023-05-17T23:44:49.051Z,0.43
2023-05-17T23:47:16.061Z,0.30
2023-05-17T23:49:42.844Z,0.80
2023-05-17T23:52:11.177Z,0.45
2023-05-17T23:54:42.104Z,0.40
2023-05-17T23:57:09.129Z,0.43
2023-05-17T23:59:36.703Z,0.40
